createdAt,value
2019-05-17T00:00:07.480Z,98437.34
2019-05-17T00:02:37.370Z,98436.91
2019-05-17T00:05:08.156Z,98430.73
2019-05-17T00:07:37.153Z,98415.69
2019-05-17T00:10:06.862Z,98415.69
2019-05-17T00:12:36.837Z,98419.23
2019-05-17T00:15:07.107Z,98416.41
2019-05-17T00:17:37.602Z,98415.21
2019-05-17T00:20:07.825Z,98410.65
2019-05-17T00:22:36.697Z,98410.78
2019-05-17T00:25:07.502Z,98401.64
2019-05-17T00:27:36.849Z,98401.97
2019-05-17T00:30:10.011Z,98400.87
2019-05-17T00:32:39.375Z,98390.52
2019-05-17T00:35:08.155Z,98395.13
2019-05-17T00:37:37.387Z,98387.30
2019-05-17T00:40:07.586Z,98388.55
2019-05-17T00:42:37.248Z,98380.02
2019-05-17T00:45:10.813Z,98376.16
2019-05-17T00:47:39.245Z,98375.34
2019-05-17T00:50:08.300Z,98371.98
2019-05-17T00:52:37.112Z,98363.94
2019-05-17T00:55:09.017Z,98364.95
2019-05-17T00:57:37.500Z,98366.03
2019-05-17T01:00:08.540Z,98365.61
2019-05-17T01:02:37.119Z,98359.47
2019-05-17T01:05:07.543Z,98360.05
2019-05-17T01:07:37.767Z,98360.05
2019-05-17T01:10:09.672Z,98357.17
2019-05-17T01:12:38.250Z,98357.07
2019-05-17T01:15:11.279Z,98347.84
2019-05-17T01:17:39.740Z,98347.45
2019-05-17T01:20:09.113Z,98341.80
2019-05-17T01:22:37.603Z,98341.22
2019-05-17T01:25:09.909Z,98339.69
2019-05-17T01:27:39.570Z,98336.81
2019-05-17T01:30:09.628Z,98332.45
2019-05-17T01:32:38.046Z,98329.97
2019-05-17T01:35:07.430Z,98313.58
2019-05-17T01:37:36.935Z,98332.55
2019-05-17T01:40:07.514Z,98326.42
2019-05-17T01:42:37.406Z,98323.74
2019-05-17T01:45:07.570Z,98324.47
2019-05-17T01:47:36.827Z,98321.05
2019-05-17T01:50:07.927Z,98319.40
2019-05-17T01:52:37.111Z,98316.80
2019-05-17T01:55:07.533Z,98325.72
2019-05-17T01:57:37.112Z,98323.17
2019-05-17T02:00:08.666Z,98324.47
2019-05-17T02:02:38.733Z,98309.14
2019-05-17T02:05:08.773Z,98307.17
2019-05-17T02:07:37.395Z,98311.43
2019-05-17T02:10:09.240Z,98311.77
2019-05-17T02:12:37.631Z,98312.44
2019-05-17T02:15:11.791Z,98308.23
2019-05-17T02:17:40.221Z,98307.31
2019-05-17T02:20:09.670Z,98302.05
2019-05-17T02:22:38.068Z,98305.16
2019-05-17T02:25:13.316Z,98300.32
2019-05-17T02:27:44.703Z,98298.03
2019-05-17T02:30:14.505Z,98300.14
2019-05-17T02:32:43.729Z,98296.88
2019-05-17T02:35:14.447Z,98296.48
2019-05-17T02:37:43.644Z,98295.96
2019-05-17T02:40:14.432Z,98291.27
2019-05-17T02:42:43.570Z,98287.30
2019-05-17T02:45:14.042Z,98288.92
2019-05-17T02:47:43.747Z,98285.52
2019-05-17T02:50:14.093Z,98285.63
2019-05-17T02:52:43.736Z,98287.78
2019-05-17T02:55:13.421Z,98292.42
2019-05-17T02:57:43.232Z,98295.45
2019-05-17T03:00:13.417Z,98289.50
2019-05-17T03:02:43.432Z,98286.05
2019-05-17T03:05:13.772Z,98281.12
2019-05-17T03:07:43.772Z,98285.77
2019-05-17T03:10:22.851Z,98285.39
2019-05-17T03:12:44.494Z,98286.63
2019-05-17T03:15:13.318Z,98280.60
2019-05-17T03:17:43.430Z,98282.75
2019-05-17T03:20:13.303Z,98273.59
2019-05-17T03:22:44.113Z,98274.61
2019-05-17T03:25:14.202Z,98276.61
2019-05-17T03:27:43.239Z,98268.53
2019-05-17T03:30:17.486Z,98273.44
2019-05-17T03:32:47.908Z,98270.54
2019-05-17T03:35:16.837Z,98269.82
2019-05-17T03:37:44.086Z,98265.77
2019-05-17T03:40:27.591Z,98267.11
2019-05-17T03:42:43.307Z,98262.77
2019-05-17T03:45:13.768Z,98264.87
2019-05-17T03:47:44.365Z,98267.73
2019-05-17T03:50:13.611Z,98265.73
2019-05-17T03:52:44.416Z,98267.64
2019-05-17T03:55:13.315Z,98260.84
2019-05-17T03:57:44.294Z,98257.48
2019-05-17T04:00:13.601Z,98260.73
2019-05-17T04:02:44.488Z,98259.29
2019-05-17T04:05:13.048Z,98256.27
2019-05-17T04:07:43.384Z,98255.31
2019-05-17T04:10:15.036Z,98253.84
2019-05-17T04:12:44.206Z,98252.68
2019-05-17T04:15:13.963Z,98250.56
2019-05-17T04:17:43.968Z,98252.14
2019-05-17T04:20:14.355Z,98252.53
2019-05-17T04:22:44.136Z,98251.05
2019-05-17T04:25:14.125Z,98255.69
2019-05-17T04:27:43.968Z,98257.27
2019-05-17T04:30:12.923Z,98256.66
2019-05-17T04:32:44.326Z,98252.85
2019-05-17T04:35:13.127Z,98254.56
2019-05-17T04:37:44.666Z,98251.76
2019-05-17T04:40:14.276Z,98249.27
2019-05-17T04:42:43.884Z,98249.66
2019-05-17T04:45:12.941Z,98250.84
2019-05-17T04:47:44.157Z,98246.91
2019-05-17T04:50:13.889Z,98250.52
2019-05-17T04:52:43.471Z,98247.50
2019-05-17T04:55:13.858Z,98245.39
2019-05-17T04:57:43.895Z,98248.45
2019-05-17T05:00:13.355Z,98247.59
2019-05-17T05:02:43.607Z,98244.75
2019-05-17T05:05:14.555Z,98241.73
2019-05-17T05:07:43.830Z,98250.27
2019-05-17T05:10:13.778Z,98243.61
2019-05-17T05:12:43.618Z,98240.02
2019-05-17T05:15:12.738Z,98244.60
2019-05-17T05:17:42.637Z,98245.02
2019-05-17T05:20:13.182Z,98254.69
2019-05-17T05:22:42.668Z,98249.49
2019-05-17T05:25:12.534Z,98249.83
2019-05-17T05:27:42.707Z,98252.91
2019-05-17T05:30:12.140Z,98249.73
2019-05-17T05:32:42.601Z,98248.58
2019-05-17T05:35:12.540Z,98249.02
2019-05-17T05:37:42.428Z,98245.41
2019-05-17T05:40:12.712Z,98245.41
2019-05-17T05:42:42.539Z,98254.37
2019-05-17T05:45:12.319Z,98244.70
2019-05-17T05:47:42.960Z,98252.91
2019-05-17T05:50:13.532Z,98250.69
2019-05-17T05:52:42.644Z,98249.02
2019-05-17T05:55:12.670Z,98247.66
2019-05-17T05:57:42.267Z,98249.52
2019-05-17T06:00:14.016Z,98245.73
2019-05-17T06:02:42.483Z,98245.04
2019-05-17T06:05:16.516Z,98244.06
2019-05-17T06:07:45.612Z,98244.77
2019-05-17T06:10:14.670Z,98245.63
2019-05-17T06:12:43.715Z,98239.17
2019-05-17T06:15:12.970Z,98247.58
2019-05-17T06:17:43.078Z,98243.36
2019-05-17T06:20:12.296Z,98239.97
2019-05-17T06:22:42.755Z,98236.36
2019-05-17T06:25:15.034Z,98234.16
2019-05-17T06:27:42.046Z,98236.95
2019-05-17T06:30:12.998Z,98235.39
2019-05-17T06:32:43.203Z,98241.05
2019-05-17T06:35:12.915Z,98237.70
2019-05-17T06:37:42.584Z,98239.59
2019-05-17T06:40:13.324Z,98238.30
2019-05-17T06:42:45.208Z,98235.61
2019-05-17T06:45:12.867Z,98232.58
2019-05-17T06:47:42.709Z,98236.72
2019-05-17T06:50:14.375Z,98232.84
2019-05-17T06:52:44.063Z,98230.68
2019-05-17T06:55:12.947Z,98227.00
2019-05-17T06:57:43.235Z,98232.73
2019-05-17T07:00:19.744Z,98227.94
2019-05-17T07:02:44.103Z,98225.69
2019-05-17T07:05:14.832Z,98222.58
2019-05-17T07:07:43.274Z,98215.72
2019-05-17T07:10:12.838Z,98214.73
2019-05-17T07:12:54.914Z,98213.75
2019-05-17T07:15:12.354Z,98220.86
2019-05-17T07:17:40.795Z,98215.78
2019-05-17T07:20:10.668Z,98219.95
2019-05-17T07:22:40.698Z,98215.08
2019-05-17T07:25:10.857Z,98218.96
2019-05-17T07:27:45.435Z,98213.72
2019-05-17T07:30:11.452Z,98209.47
2019-05-17T07:32:40.802Z,98211.70
2019-05-17T07:35:11.224Z,98210.43
2019-05-17T07:37:39.901Z,98212.70
2019-05-17T07:40:10.810Z,98210.05
2019-05-17T07:42:39.706Z,98217.63
2019-05-17T07:45:10.135Z,98212.75
2019-05-17T07:47:40.542Z,98201.64
2019-05-17T07:50:11.374Z,98202.33
2019-05-17T07:52:40.161Z,98205.78
2019-05-17T07:55:10.918Z,98204.21
2019-05-17T07:57:41.034Z,98196.38
2019-05-17T08:00:10.507Z,98198.00
2019-05-17T08:02:40.219Z,98196.09
2019-05-17T08:05:10.446Z,98192.02
2019-05-17T08:07:40.236Z,98182.39
2019-05-17T08:10:10.963Z,98186.77
2019-05-17T08:12:40.513Z,98182.77
2019-05-17T08:15:10.704Z,98178.74
2019-05-17T08:17:39.735Z,98176.46
2019-05-17T08:20:10.646Z,98172.14
2019-05-17T08:22:39.906Z,98169.88
2019-05-17T08:25:10.162Z,98166.72
2019-05-17T08:27:40.646Z,98166.53
2019-05-17T08:30:10.528Z,98163.51
2019-05-17T08:32:40.070Z,98165.72
2019-05-17T08:35:11.173Z,98170.23
2019-05-17T08:37:42.401Z,98166.72
2019-05-17T08:40:10.718Z,98169.48
2019-05-17T08:42:40.705Z,98165.55
2019-05-17T08:45:09.925Z,98168.58
2019-05-17T08:47:39.625Z,98164.63
2019-05-17T08:50:11.340Z,98169.98
2019-05-17T08:52:40.344Z,98161.41
2019-05-17T08:55:09.817Z,98158.20
2019-05-17T08:57:39.940Z,98154.88
2019-05-17T09:00:10.739Z,98151.88
2019-05-17T09:02:40.771Z,98156.23
2019-05-17T09:05:10.110Z,98148.05
2019-05-17T09:07:40.177Z,98146.71
2019-05-17T09:10:10.188Z,98141.52
2019-05-17T09:12:41.072Z,98145.78
2019-05-17T09:15:10.075Z,98142.17
2019-05-17T09:17:39.653Z,98140.86
2019-05-17T09:20:10.837Z,98136.21
2019-05-17T09:22:39.929Z,98129.75
2019-05-17T09:25:13.502Z,98129.97
2019-05-17T09:27:39.803Z,98129.50
2019-05-17T09:30:09.739Z,98128.36
2019-05-17T09:32:40.355Z,98129.73
2019-05-17T09:35:10.073Z,98124.09
2019-05-17T09:37:41.531Z,98126.66
2019-05-17T09:40:09.596Z,98129.72
2019-05-17T09:42:40.826Z,98127.08
2019-05-17T09:45:09.805Z,98126.27
2019-05-17T09:47:39.717Z,98127.03
2019-05-17T09:50:10.001Z,98117.22
2019-05-17T09:52:40.689Z,98118.02
2019-05-17T09:55:10.073Z,98115.81
2019-05-17T09:57:40.935Z,98119.02
2019-05-17T10:00:10.806Z,98118.74
2019-05-17T10:02:40.364Z,98113.95
2019-05-17T10:05:10.553Z,98121.90
2019-05-17T10:07:40.384Z,98118.61
2019-05-17T10:10:10.389Z,98117.27
2019-05-17T10:12:40.436Z,98122.58
2019-05-17T10:15:10.022Z,98118.31
2019-05-17T10:17:38.821Z,98123.37
2019-05-17T10:20:10.781Z,98118.58
2019-05-17T10:22:40.112Z,98119.47
2019-05-17T10:25:09.624Z,98119.81
2019-05-17T10:27:40.401Z,98116.64
2019-05-17T10:30:10.264Z,98113.11
2019-05-17T10:32:40.945Z,98102.64
2019-05-17T10:35:09.746Z,98109.73
2019-05-17T10:37:40.805Z,98114.27
2019-05-17T10:40:10.218Z,98112.28
2019-05-17T10:42:39.629Z,98104.46
2019-05-17T10:45:11.011Z,98110.59
2019-05-17T10:47:39.956Z,98110.14
2019-05-17T10:50:10.898Z,98109.89
2019-05-17T10:52:41.054Z,98114.69
2019-05-17T10:55:10.446Z,98117.31
2019-05-17T10:57:39.325Z,98111.94
2019-05-17T11:00:10.041Z,98121.56
2019-05-17T11:02:38.829Z,98120.70
2019-05-17T11:05:07.587Z,98121.80
2019-05-17T11:07:36.005Z,98121.75
2019-05-17T11:10:06.266Z,98126.42
2019-05-17T11:12:34.739Z,98116.10
2019-05-17T11:15:11.097Z,98117.83
2019-05-17T11:17:34.469Z,98124.57
2019-05-17T11:20:03.307Z,98119.63
2019-05-17T11:22:31.708Z,98121.19
2019-05-17T11:25:00.122Z,98118.55
2019-05-17T11:27:28.583Z,98117.55
2019-05-17T11:29:56.932Z,98113.23
2019-05-17T11:32:25.360Z,98111.61
2019-05-17T11:34:53.826Z,98110.48
2019-05-17T11:37:23.055Z,98107.73
2019-05-17T11:39:51.544Z,98104.80
2019-05-17T11:42:19.953Z,98115.00
2019-05-17T11:44:48.433Z,98099.22
2019-05-17T11:47:16.857Z,98107.13
2019-05-17T11:49:45.247Z,98103.73
2019-05-17T11:52:14.479Z,98095.53
2019-05-17T11:54:42.998Z,98092.34
2019-05-17T11:57:12.374Z,98099.53
2019-05-17T11:59:40.970Z,98098.58
2019-05-17T12:02:09.377Z,98095.50
2019-05-17T12:04:37.785Z,98091.98
2019-05-17T12:07:06.233Z,98096.51
2019-05-17T12:09:37.688Z,98096.81
2019-05-17T12:12:04.839Z,98090.78
2019-05-17T12:14:33.435Z,98085.56
2019-05-17T12:17:01.842Z,98092.41
2019-05-17T12:19:30.270Z,98098.23
2019-05-17T12:21:58.680Z,98089.39
2019-05-17T12:24:27.071Z,98092.21
2019-05-17T12:26:55.540Z,98095.05
2019-05-17T12:29:23.994Z,98102.01
2019-05-17T12:31:52.390Z,98093.67
2019-05-17T12:34:20.802Z,98096.28
2019-05-17T12:36:49.225Z,98098.80
2019-05-17T12:39:17.635Z,98093.02
2019-05-17T12:41:46.094Z,98091.38
2019-05-17T12:44:14.555Z,98102.94
2019-05-17T12:46:44.547Z,98089.05
2019-05-17T12:49:13.389Z,98083.39
2019-05-17T12:51:42.567Z,98081.90
2019-05-17T12:54:10.958Z,98084.41
2019-05-17T12:56:39.368Z,98071.14
2019-05-17T12:59:07.836Z,98081.62
2019-05-17T13:01:36.248Z,98082.56
2019-05-17T13:04:04.808Z,98082.43
2019-05-17T13:06:33.244Z,98066.04
2019-05-17T13:09:01.867Z,98080.13
2019-05-17T13:11:30.342Z,98071.74
2019-05-17T13:13:58.792Z,98080.09
2019-05-17T13:16:27.321Z,98080.98
2019-05-17T13:18:55.723Z,98067.18
2019-05-17T13:21:24.121Z,98068.18
2019-05-17T13:23:52.554Z,98063.06
2019-05-17T13:26:20.982Z,98069.09
2019-05-17T13:28:49.395Z,98073.38
2019-05-17T13:31:17.813Z,98065.67
2019-05-17T13:33:46.243Z,98065.47
2019-05-17T13:36:15.037Z,98066.66
2019-05-17T13:38:43.525Z,98066.27
2019-05-17T13:41:12.031Z,98066.15
2019-05-17T13:43:40.505Z,98058.52
2019-05-17T13:46:09.369Z,98054.80
2019-05-17T13:48:38.940Z,98052.29
2019-05-17T13:51:08.111Z,98053.89
2019-05-17T13:53:36.824Z,98061.36
2019-05-17T13:56:06.731Z,98056.94
2019-05-17T13:58:35.323Z,98045.09
2019-05-17T14:01:03.740Z,98047.88
2019-05-17T14:03:32.190Z,98049.28
2019-05-17T14:06:00.683Z,98038.70
2019-05-17T14:08:29.108Z,98048.42
2019-05-17T14:10:57.619Z,98053.21
2019-05-17T14:13:26.138Z,98058.25
2019-05-17T14:15:55.565Z,98054.05
2019-05-17T14:18:24.274Z,98047.00
2019-05-17T14:20:52.825Z,98047.72
2019-05-17T14:23:22.646Z,98046.91
2019-05-17T14:25:51.141Z,98049.42
2019-05-17T14:28:19.735Z,98052.23
2019-05-17T14:30:48.615Z,98057.73
2019-05-17T14:33:17.374Z,98059.14
2019-05-17T14:35:45.893Z,98047.29
2019-05-17T14:38:14.458Z,98047.15
2019-05-17T14:41:05.739Z,98047.15
2019-05-17T14:43:14.129Z,98055.19
2019-05-17T14:45:43.931Z,98048.19
2019-05-17T14:48:13.318Z,98056.78
2019-05-17T14:50:42.958Z,98042.87
2019-05-17T14:53:11.466Z,98043.30
2019-05-17T14:55:39.880Z,98049.48
2019-05-17T14:58:08.470Z,98044.78
2019-05-17T15:00:38.144Z,98044.78
2019-05-17T15:03:07.679Z,98043.86
2019-05-17T15:05:36.553Z,98045.76
2019-05-17T15:08:04.991Z,98044.04
2019-05-17T15:10:33.439Z,98037.84
2019-05-17T15:13:04.519Z,98037.84
2019-05-17T15:15:33.097Z,98035.83
2019-05-17T15:18:01.530Z,98033.20
2019-05-17T15:20:30.108Z,98030.89
2019-05-17T15:22:58.785Z,98025.95
2019-05-17T15:25:27.203Z,98021.94
2019-05-17T15:27:55.637Z,98015.44
2019-05-17T15:30:24.253Z,98016.48
2019-05-17T15:32:52.873Z,98013.33
2019-05-17T15:35:21.448Z,98006.11
2019-05-17T15:37:50.551Z,98012.52
2019-05-17T15:40:19.108Z,98012.88
2019-05-17T15:42:47.709Z,98014.16
2019-05-17T15:45:16.629Z,98012.31
2019-05-17T15:47:46.356Z,98010.45
2019-05-17T15:50:15.293Z,98011.46
2019-05-17T15:52:44.005Z,98010.91
2019-05-17T15:55:12.744Z,98005.66
2019-05-17T15:57:41.913Z,98009.77
2019-05-17T16:00:11.327Z,98002.67
2019-05-17T16:02:40.118Z,98001.07
2019-05-17T16:05:09.139Z,97996.12
2019-05-17T16:07:37.921Z,98002.21
2019-05-17T16:10:10.423Z,97989.13
2019-05-17T16:12:38.999Z,97989.48
2019-05-17T16:15:09.191Z,97990.66
2019-05-17T16:17:38.430Z,97980.50
2019-05-17T16:20:07.715Z,97977.57
2019-05-17T16:22:36.541Z,97978.09
2019-05-17T16:25:06.569Z,97969.53
2019-05-17T16:27:35.620Z,97970.53
2019-05-17T16:30:05.759Z,97974.26
2019-05-17T16:32:34.275Z,97978.19
2019-05-17T16:35:02.894Z,97976.12
2019-05-17T16:37:31.711Z,97971.89
2019-05-17T16:40:01.041Z,97977.00
2019-05-17T16:42:30.044Z,97978.50
2019-05-17T16:44:58.805Z,97978.97
2019-05-17T16:47:27.297Z,97977.39
2019-05-17T16:49:56.487Z,97975.38
2019-05-17T16:52:25.265Z,97971.72
2019-05-17T16:54:53.832Z,97979.23
2019-05-17T16:57:22.838Z,97975.48
2019-05-17T16:59:51.761Z,97982.41
2019-05-17T17:02:20.361Z,97981.27
2019-05-17T17:04:48.972Z,97987.89
2019-05-17T17:07:17.944Z,97976.87
2019-05-17T17:09:46.735Z,97980.71
2019-05-17T17:12:15.286Z,97969.77
2019-05-17T17:14:43.707Z,97978.83
2019-05-17T17:17:13.258Z,97979.41
2019-05-17T17:19:42.039Z,97976.41
2019-05-17T17:22:10.553Z,97980.54
2019-05-17T17:24:38.955Z,97981.84
2019-05-17T17:27:07.366Z,97981.35
2019-05-17T17:29:35.803Z,97984.55
2019-05-17T17:32:04.199Z,97990.23
2019-05-17T17:34:32.629Z,97984.91
2019-05-17T17:37:01.025Z,97980.05
2019-05-17T17:39:29.434Z,97983.50
2019-05-17T17:41:57.851Z,97982.02
2019-05-17T17:44:26.297Z,97977.70
2019-05-17T17:46:54.712Z,97978.55
2019-05-17T17:49:23.124Z,97974.41
2019-05-17T17:51:51.549Z,97974.91
2019-05-17T17:54:20.006Z,97984.81
2019-05-17T17:56:48.502Z,97990.67
2019-05-17T17:59:17.049Z,97984.62
2019-05-17T18:01:45.485Z,97985.27
2019-05-17T18:04:13.959Z,97982.94
2019-05-17T18:06:42.380Z,97981.34
2019-05-17T18:09:10.787Z,97978.15
2019-05-17T18:11:39.215Z,97980.95
2019-05-17T18:14:13.225Z,97975.73
2019-05-17T18:16:37.757Z,97973.75
2019-05-17T18:19:06.285Z,97977.45
2019-05-17T18:21:34.772Z,97978.68
2019-05-17T18:24:03.203Z,97972.98
2019-05-17T18:26:31.632Z,97981.77
2019-05-17T18:29:00.041Z,97976.53
2019-05-17T18:31:28.452Z,97977.63
2019-05-17T18:33:56.894Z,97978.66
2019-05-17T18:36:25.315Z,97975.84
2019-05-17T18:38:55.146Z,97971.72
2019-05-17T18:41:23.562Z,97973.33
2019-05-17T18:43:51.972Z,97977.12
2019-05-17T18:46:20.831Z,97973.48
2019-05-17T18:48:49.315Z,97968.56
2019-05-17T18:51:17.708Z,97980.68
2019-05-17T18:53:46.340Z,97977.86
2019-05-17T18:56:14.766Z,97974.12
2019-05-17T18:58:43.175Z,97978.40
2019-05-17T19:01:11.860Z,97979.85
2019-05-17T19:03:40.324Z,97978.69
2019-05-17T19:06:08.740Z,97973.69
2019-05-17T19:08:37.149Z,97973.69
2019-05-17T19:11:06.009Z,97983.09
2019-05-17T19:13:34.502Z,97976.84
2019-05-17T19:16:02.985Z,97988.59
2019-05-17T19:18:31.488Z,97990.70
2019-05-17T19:20:59.906Z,97991.73
2019-05-17T19:23:28.325Z,97994.55
2019-05-17T19:25:56.738Z,97997.70
2019-05-17T19:28:25.133Z,97993.99
2019-05-17T19:30:53.564Z,97997.05
2019-05-17T19:33:22.717Z,97997.82
2019-05-17T19:35:52.581Z,98003.37
2019-05-17T19:38:21.140Z,98003.66
2019-05-17T19:40:51.004Z,98006.92
2019-05-17T19:43:20.030Z,98005.64
2019-05-17T19:45:48.461Z,98013.23
2019-05-17T19:48:19.802Z,98007.01
2019-05-17T19:50:48.067Z,98015.64
2019-05-17T19:53:16.490Z,98012.97
2019-05-17T19:55:44.920Z,98017.46
2019-05-17T19:58:13.463Z,98020.97
2019-05-17T20:00:41.912Z,98017.11
2019-05-17T20:03:10.355Z,98012.72
2019-05-17T20:05:38.760Z,98016.64
2019-05-17T20:08:07.216Z,98020.11
2019-05-17T20:10:35.634Z,98018.48
2019-05-17T20:13:04.106Z,98018.86
2019-05-17T20:15:34.881Z,98007.38
2019-05-17T20:18:02.810Z,98011.30
2019-05-17T20:20:31.192Z,98009.67
2019-05-17T20:22:59.625Z,98012.21
2019-05-17T20:25:28.038Z,98006.68
2019-05-17T20:27:56.488Z,98004.69
2019-05-17T20:30:24.880Z,98006.83
2019-05-17T20:32:53.312Z,98011.37
2019-05-17T20:35:21.733Z,97997.50
2019-05-17T20:37:50.137Z,97997.96
2019-05-17T20:40:18.907Z,97991.08
2019-05-17T20:42:48.286Z,97992.30
2019-05-17T20:45:30.609Z,97987.00
2019-05-17T20:47:47.328Z,97990.59
2019-05-17T20:50:15.984Z,97989.30
2019-05-17T20:52:44.409Z,97990.59
2019-05-17T20:55:13.176Z,97989.94
2019-05-17T20:57:41.607Z,97991.44
2019-05-17T21:00:11.034Z,97999.34
2019-05-17T21:02:39.431Z,98006.78
2019-05-17T21:05:08.600Z,98001.09
2019-05-17T21:07:37.009Z,98004.87
2019-05-17T21:10:06.667Z,98000.03
2019-05-17T21:12:35.113Z,97999.27
2019-05-17T21:15:04.771Z,97996.58
2019-05-17T21:17:33.183Z,97997.42
2019-05-17T21:20:01.597Z,97989.61
2019-05-17T21:22:30.046Z,97997.75
2019-05-17T21:24:58.479Z,97988.47
2019-05-17T21:27:26.925Z,97994.45
2019-05-17T21:29:55.378Z,97993.08
2019-05-17T21:32:23.809Z,97991.45
2019-05-17T21:34:52.225Z,97995.59
2019-05-17T21:37:20.652Z,97990.70
2019-05-17T21:39:49.052Z,97994.97
2019-05-17T21:42:17.494Z,97989.23
2019-05-17T21:44:45.896Z,97988.98
2019-05-17T21:47:14.322Z,97988.83
2019-05-17T21:49:42.829Z,97986.84
2019-05-17T21:52:11.232Z,97985.62
2019-05-17T21:54:39.694Z,97983.02
2019-05-17T21:57:08.143Z,97983.50
2019-05-17T21:59:36.564Z,97981.34
2019-05-17T22:02:05.329Z,97981.11
2019-05-17T22:04:33.831Z,97985.26
2019-05-17T22:07:02.270Z,97977.81
2019-05-17T22:09:30.733Z,97986.48
2019-05-17T22:12:00.858Z,97983.10
2019-05-17T22:14:29.300Z,97987.23
2019-05-17T22:16:57.679Z,97983.95
2019-05-17T22:19:26.099Z,97987.69
2019-05-17T22:21:54.497Z,97985.41
2019-05-17T22:24:22.911Z,97987.06
2019-05-17T22:26:51.346Z,97980.70
2019-05-17T22:29:19.796Z,97978.80
2019-05-17T22:31:49.161Z,97980.77
2019-05-17T22:34:17.559Z,97981.47
2019-05-17T22:36:45.990Z,97979.77
2019-05-17T22:39:14.393Z,97974.93
2019-05-17T22:41:42.813Z,97977.16
2019-05-17T22:44:11.240Z,97975.64
2019-05-17T22:46:39.659Z,97974.70
2019-05-17T22:49:08.111Z,97973.26
2019-05-17T22:51:36.547Z,97972.42
2019-05-17T22:54:05.074Z,97976.75
2019-05-17T22:56:33.503Z,97969.90
2019-05-17T22:59:01.904Z,97977.69
2019-05-17T23:01:30.324Z,97972.68
2019-05-17T23:03:58.752Z,97973.88
2019-05-17T23:06:27.179Z,97975.71
2019-05-17T23:08:55.682Z,97971.28
2019-05-17T23:11:24.554Z,97973.28
2019-05-17T23:13:52.979Z,97969.75
2019-05-17T23:16:21.379Z,97971.84
2019-05-17T23:19:08.952Z,97977.01
2019-05-17T23:21:37.602Z,97974.41
2019-05-17T23:24:06.528Z,97977.11
2019-05-17T23:26:35.099Z,97979.70
2019-05-17T23:29:03.871Z,97976.58
2019-05-17T23:31:32.289Z,97981.66
2019-05-17T23:34:00.707Z,97977.98
2019-05-17T23:36:29.131Z,97974.13
2019-05-17T23:38:57.558Z,97974.90
2019-05-17T23:41:26.006Z,97965.80
2019-05-17T23:43:54.429Z,97969.08
2019-05-17T23:46:22.854Z,97974.83
2019-05-17T23:48:51.271Z,98000.41
2019-05-17T23:51:19.837Z,97985.63
2019-05-17T23:53:48.264Z,97994.30
2019-05-17T23:56:16.680Z,97989.77
2019-05-17T23:58:45.204Z,97998.83
